sensor_id;sensor_type;location;lat;lon;timestamp;temperature;humidity
68189;DHT22;66299;47.514;19.218;2023-05-24T00:00:11;16.01;97.64
68189;DHT22;66299;47.514;19.218;2023-05-24T00:02:45;16.02;97.83
68189;DHT22;66299;47.514;19.218;2023-05-24T00:05:14;16.01;97.97
68189;DHT22;66299;47.514;19.218;2023-05-24T00:07:45;16.00;98.13
68189;DHT22;66299;47.514;19.218;2023-05-24T00:10:15;16.06;98.41
68189;DHT22;66299;47.514;19.218;2023-05-24T00:12:43;16.00;97.82
68189;DHT22;66299;47.514;19.218;2023-05-24T00:15:16;16.05;97.93
68189;DHT22;66299;47.514;19.218;2023-05-24T00:17:49;16.02;97.96
68189;DHT22;66299;47.514;19.218;2023-05-24T00:20:18;15.97;98.03
68189;DHT22;66299;47.514;19.218;2023-05-24T00:22:47;15.94;98.24
68189;DHT22;66299;47.514;19.218;2023-05-24T00:25:15;15.95;97.83
68189;DHT22;66299;47.514;19.218;2023-05-24T00:27:45;15.91;97.59
68189;DHT22;66299;47.514;19.218;2023-05-24T00:30:13;15.92;97.40
68189;DHT22;66299;47.514;19.218;2023-05-24T00:32:42;15.85;97.79
68189;DHT22;66299;47.514;19.218;2023-05-24T00:35:14;15.90;97.50
68189;DHT22;66299;47.514;19.218;2023-05-24T00:37:42;15.84;97.54
68189;DHT22;66299;47.514;19.218;2023-05-24T00:40:14;15.91;97.22
68189;DHT22;66299;47.514;19.218;2023-05-24T00:42:43;15.94;97.54
68189;DHT22;66299;47.514;19.218;2023-05-24T00:45:12;15.92;97.75
68189;DHT22;66299;47.514;19.218;2023-05-24T00:47:41;15.90;97.38
68189;DHT22;66299;47.514;19.218;2023-05-24T00:50:11;15.87;97.45
68189;DHT22;66299;47.514;19.218;2023-05-24T00:52:46;15.87;97.22
68189;DHT22;66299;47.514;19.218;2023-05-24T00:55:17;15.81;97.77
68189;DHT22;66299;47.514;19.218;2023-05-24T00:57:47;15.80;98.00
68189;DHT22;66299;47.514;19.218;2023-05-24T01:00:16;15.77;97.88
68189;DHT22;66299;47.514;19.218;2023-05-24T01:02:45;15.81;97.71
68189;DHT22;66299;47.514;19.218;2023-05-24T01:05:18;15.77;97.86
68189;DHT22;66299;47.514;19.218;2023-05-24T01:07:55;15.75;98.05
68189;DHT22;66299;47.514;19.218;2023-05-24T01:10:31;15.70;98.06
68189;DHT22;66299;47.514;19.218;2023-05-24T01:13:12;15.70;98.46
68189;DHT22;66299;47.514;19.218;2023-05-24T01:15:49;15.65;98.32
68189;DHT22;66299;47.514;19.218;2023-05-24T01:18:22;15.55;98.66
68189;DHT22;66299;47.514;19.218;2023-05-24T01:21:04;15.51;98.59
68189;DHT22;66299;47.514;19.218;2023-05-24T01:23:46;15.51;99.05
68189;DHT22;66299;47.514;19.218;2023-05-24T01:26:28;15.36;98.93
68189;DHT22;66299;47.514;19.218;2023-05-24T01:29:02;15.33;99.24
68189;DHT22;66299;47.514;19.218;2023-05-24T01:31:32;15.29;99.28
68189;DHT22;66299;47.514;19.218;2023-05-24T01:34:01;15.22;99.53
68189;DHT22;66299;47.514;19.218;2023-05-24T01:36:30;15.19;99.54
68189;DHT22;66299;47.514;19.218;2023-05-24T01:38:59;15.12;99.78
68189;DHT22;66299;47.514;19.218;2023-05-24T01:41:35;15.15;99.85
68189;DHT22;66299;47.514;19.218;2023-05-24T01:44:14;15.12;99.99
68189;DHT22;66299;47.514;19.218;2023-05-24T01:46:49;15.10;99.96
68189;DHT22;66299;47.514;19.218;2023-05-24T01:49:25;15.12;99.75
68189;DHT22;66299;47.514;19.218;2023-05-24T01:51:58;15.12;99.80
68189;DHT22;66299;47.514;19.218;2023-05-24T01:54:32;15.10;99.99
68189;DHT22;66299;47.514;19.218;2023-05-24T01:57:03;15.05;99.99
68189;DHT22;66299;47.514;19.218;2023-05-24T01:59:37;15.03;99.87
68189;DHT22;66299;47.514;19.218;2023-05-24T02:02:07;15.05;99.95
68189;DHT22;66299;47.514;19.218;2023-05-24T02:04:36;15.06;99.98
68189;DHT22;66299;47.514;19.218;2023-05-24T02:07:04;15.15;99.71
68189;DHT22;66299;47.514;19.218;2023-05-24T02:09:33;15.13;99.88
68189;DHT22;66299;47.514;19.218;2023-05-24T02:12:02;15.16;99.60
68189;DHT22;66299;47.514;19.218;2023-05-24T02:14:33;15.18;99.83
68189;DHT22;66299;47.514;19.218;2023-05-24T02:17:04;15.10;99.74
68189;DHT22;66299;47.514;19.218;2023-05-24T02:19:32;15.10;99.88
68189;DHT22;66299;47.514;19.218;2023-05-24T02:22:03;15.12;99.48
68189;DHT22;66299;47.514;19.218;2023-05-24T02:24:32;15.03;99.69
68189;DHT22;66299;47.514;19.218;2023-05-24T02:27:01;15.07;99.91
68189;DHT22;66299;47.514;19.218;2023-05-24T02:29:29;14.99;99.77
68189;DHT22;66299;47.514;19.218;2023-05-24T02:31:59;14.95;99.96
68189;DHT22;66299;47.514;19.218;2023-05-24T02:34:33;14.93;99.87
68189;DHT22;66299;47.514;19.218;2023-05-24T02:37:02;14.95;99.79
68189;DHT22;66299;47.514;19.218;2023-05-24T02:39:32;14.95;99.85
68189;DHT22;66299;47.514;19.218;2023-05-24T02:42:02;14.91;99.77
68189;DHT22;66299;47.514;19.218;2023-05-24T02:44:31;14.85;99.99
68189;DHT22;66299;47.514;19.218;2023-05-24T02:47:01;14.89;99.95
68189;DHT22;66299;47.514;19.218;2023-05-24T02:49:30;14.82;99.99
68189;DHT22;66299;47.514;19.218;2023-05-24T02:51:59;14.82;99.99
68189;DHT22;66299;47.514;19.218;2023-05-24T02:54:27;14.86;99.85
68189;DHT22;66299;47.514;19.218;2023-05-24T02:56:57;14.77;99.99
68189;DHT22;66299;47.514;19.218;2023-05-24T02:59:26;14.74;99.99
68189;DHT22;66299;47.514;19.218;2023-05-24T03:01:55;14.79;99.99
68189;DHT22;66299;47.514;19.218;2023-05-24T03:04:26;14.79;99.99
68189;DHT22;66299;47.514;19.218;2023-05-24T03:06:55;14.78;99.99
68189;DHT22;66299;47.514;19.218;2023-05-24T03:09:23;14.79;99.99
68189;DHT22;66299;47.514;19.218;2023-05-24T03:11:52;14.81;99.99
68189;DHT22;66299;47.514;19.218;2023-05-24T03:14:21;14.81;99.99
68189;DHT22;66299;47.514;19.218;2023-05-24T03:16:51;14.81;99.99
68189;DHT22;66299;47.514;19.218;2023-05-24T03:19:20;14.79;99.99
68189;DHT22;66299;47.514;19.218;2023-05-24T03:21:49;14.78;99.99
68189;DHT22;66299;47.514;19.218;2023-05-24T03:24:18;14.77;99.99
68189;DHT22;66299;47.514;19.218;2023-05-24T03:26:48;14.74;99.99
68189;DHT22;66299;47.514;19.218;2023-05-24T03:29:17;14.74;99.99
68189;DHT22;66299;47.514;19.218;2023-05-24T03:31:49;14.69;99.92
68189;DHT22;66299;47.514;19.218;2023-05-24T03:34:17;14.60;99.99
68189;DHT22;66299;47.514;19.218;2023-05-24T03:36:47;14.63;99.99
68189;DHT22;66299;47.514;19.218;2023-05-24T03:39:16;14.69;99.99
68189;DHT22;66299;47.514;19.218;2023-05-24T03:41:45;14.72;99.99
68189;DHT22;66299;47.514;19.218;2023-05-24T03:44:13;14.74;99.99
68189;DHT22;66299;47.514;19.218;2023-05-24T03:46:42;14.78;99.99
68189;DHT22;66299;47.514;19.218;2023-05-24T03:49:11;14.86;99.99
68189;DHT22;66299;47.514;19.218;2023-05-24T03:51:41;14.89;99.99
68189;DHT22;66299;47.514;19.218;2023-05-24T03:54:10;14.92;99.99
68189;DHT22;66299;47.514;19.218;2023-05-24T03:56:39;15.00;99.99
68189;DHT22;66299;47.514;19.218;2023-05-24T03:59:11;15.05;99.89
68189;DHT22;66299;47.514;19.218;2023-05-24T04:01:39;15.09;99.60
68189;DHT22;66299;47.514;19.218;2023-05-24T04:04:08;15.09;99.82
68189;DHT22;66299;47.514;19.218;2023-05-24T04:06:37;15.18;99.78
68189;DHT22;66299;47.514;19.218;2023-05-24T04:09:09;15.19;99.58
68189;DHT22;66299;47.514;19.218;2023-05-24T04:11:37;15.19;99.70
68189;DHT22;66299;47.514;19.218;2023-05-24T04:14:08;15.26;99.42
68189;DHT22;66299;47.514;19.218;2023-05-24T04:16:40;15.34;99.07
68189;DHT22;66299;47.514;19.218;2023-05-24T04:19:11;15.40;99.31
68189;DHT22;66299;47.514;19.218;2023-05-24T04:21:43;15.50;98.84
68189;DHT22;66299;47.514;19.218;2023-05-24T04:24:13;15.55;98.66
68189;DHT22;66299;47.514;19.218;2023-05-24T04:26:43;15.75;98.25
68189;DHT22;66299;47.514;19.218;2023-05-24T04:29:15;15.85;98.02
68189;DHT22;66299;47.514;19.218;2023-05-24T04:31:44;16.01;97.92
68189;DHT22;66299;47.514;19.218;2023-05-24T04:34:15;16.06;97.57
68189;DHT22;66299;47.514;19.218;2023-05-24T04:36:44;16.21;97.24
68189;DHT22;66299;47.514;19.218;2023-05-24T04:39:13;16.23;97.16
68189;DHT22;66299;47.514;19.218;2023-05-24T04:41:41;16.30;96.81
68189;DHT22;66299;47.514;19.218;2023-05-24T04:44:11;16.48;96.25
68189;DHT22;66299;47.514;19.218;2023-05-24T04:46:41;16.53;96.04
68189;DHT22;66299;47.514;19.218;2023-05-24T04:49:11;16.52;96.54
68189;DHT22;66299;47.514;19.218;2023-05-24T04:51:40;16.64;95.90
68189;DHT22;66299;47.514;19.218;2023-05-24T04:54:08;16.70;95.58
68189;DHT22;66299;47.514;19.218;2023-05-24T04:56:38;16.73;95.28
68189;DHT22;66299;47.514;19.218;2023-05-24T04:59:07;16.92;95.21
68189;DHT22;66299;47.514;19.218;2023-05-24T05:01:36;17.10;94.67
68189;DHT22;66299;47.514;19.218;2023-05-24T05:04:07;16.92;95.34
68189;DHT22;66299;47.514;19.218;2023-05-24T05:06:36;17.10;95.39
68189;DHT22;66299;47.514;19.218;2023-05-24T05:09:11;17.14;94.75
68189;DHT22;66299;47.514;19.218;2023-05-24T05:11:41;17.03;94.61
68189;DHT22;66299;47.514;19.218;2023-05-24T05:14:09;17.14;94.04
68189;DHT22;66299;47.514;19.218;2023-05-24T05:16:39;17.25;94.22
68189;DHT22;66299;47.514;19.218;2023-05-24T05:19:12;17.32;93.65
68189;DHT22;66299;47.514;19.218;2023-05-24T05:21:40;17.35;93.43
68189;DHT22;66299;47.514;19.218;2023-05-24T05:24:11;17.42;93.30
68189;DHT22;66299;47.514;19.218;2023-05-24T05:26:41;17.34;93.40
68189;DHT22;66299;47.514;19.218;2023-05-24T05:29:13;17.45;92.76
68189;DHT22;66299;47.514;19.218;2023-05-24T05:31:42;17.27;93.26
68189;DHT22;66299;47.514;19.218;2023-05-24T05:34:14;17.48;93.16
68189;DHT22;66299;47.514;19.218;2023-05-24T05:36:44;17.57;92.68
68189;DHT22;66299;47.514;19.218;2023-05-24T05:39:15;17.75;91.94
68189;DHT22;66299;47.514;19.218;2023-05-24T05:41:47;17.83;91.51
68189;DHT22;66299;47.514;19.218;2023-05-24T05:44:16;17.83;91.10
68189;DHT22;66299;47.514;19.218;2023-05-24T05:46:46;17.79;90.63
68189;DHT22;66299;47.514;19.218;2023-05-24T05:49:16;17.66;90.88
68189;DHT22;66299;47.514;19.218;2023-05-24T05:51:45;17.73;90.14
68189;DHT22;66299;47.514;19.218;2023-05-24T05:54:15;17.93;89.79
68189;DHT22;66299;47.514;19.218;2023-05-24T05:56:46;17.97;89.52
68189;DHT22;66299;47.514;19.218;2023-05-24T05:59:16;17.94;89.24
68189;DHT22;66299;47.514;19.218;2023-05-24T06:01:48;18.15;89.58
68189;DHT22;66299;47.514;19.218;2023-05-24T06:04:21;18.37;88.79
68189;DHT22;66299;47.514;19.218;2023-05-24T06:06:50;18.52;87.85
68189;DHT22;66299;47.514;19.218;2023-05-24T06:09:19;18.58;88.01
68189;DHT22;66299;47.514;19.218;2023-05-24T06:11:49;18.69;87.61
68189;DHT22;66299;47.514;19.218;2023-05-24T06:14:21;18.51;87.64
68189;DHT22;66299;47.514;19.218;2023-05-24T06:16:53;18.56;87.74
68189;DHT22;66299;47.514;19.218;2023-05-24T06:19:29;18.42;86.62
68189;DHT22;66299;47.514;19.218;2023-05-24T06:22:02;18.48;86.82
68189;DHT22;66299;47.514;19.218;2023-05-24T06:24:33;18.92;86.15
68189;DHT22;66299;47.514;19.218;2023-05-24T06:27:01;19.16;84.79
68189;DHT22;66299;47.514;19.218;2023-05-24T06:29:33;18.83;86.05
68189;DHT22;66299;47.514;19.218;2023-05-24T06:32:01;19.35;85.20
68189;DHT22;66299;47.514;19.218;2023-05-24T06:34:33;19.02;85.05
68189;DHT22;66299;47.514;19.218;2023-05-24T06:37:03;19.16;85.24
68189;DHT22;66299;47.514;19.218;2023-05-24T06:39:36;19.00;85.29
68189;DHT22;66299;47.514;19.218;2023-05-24T06:42:07;19.04;85.39
68189;DHT22;66299;47.514;19.218;2023-05-24T06:44:41;19.10;85.47
68189;DHT22;66299;47.514;19.218;2023-05-24T06:47:10;19.23;85.18
68189;DHT22;66299;47.514;19.218;2023-05-24T06:49:42;18.99;84.64
68189;DHT22;66299;47.514;19.218;2023-05-24T06:52:14;19.16;84.35
68189;DHT22;66299;47.514;19.218;2023-05-24T06:54:45;19.21;83.59
68189;DHT22;66299;47.514;19.218;2023-05-24T06:57:16;19.11;83.64
68189;DHT22;66299;47.514;19.218;2023-05-24T06:59:46;19.32;83.11
68189;DHT22;66299;47.514;19.218;2023-05-24T07:02:16;19.20;83.67
68189;DHT22;66299;47.514;19.218;2023-05-24T07:04:56;19.59;83.79
68189;DHT22;66299;47.514;19.218;2023-05-24T07:07:26;19.46;83.00
68189;DHT22;66299;47.514;19.218;2023-05-24T07:09:56;19.58;82.89
68189;DHT22;66299;47.514;19.218;2023-05-24T07:12:25;19.75;83.60
68189;DHT22;66299;47.514;19.218;2023-05-24T07:14:54;19.90;83.90
68189;DHT22;66299;47.514;19.218;2023-05-24T07:17:24;19.95;82.64
68189;DHT22;66299;47.514;19.218;2023-05-24T07:19:57;19.88;82.64
68189;DHT22;66299;47.514;19.218;2023-05-24T07:22:27;19.96;81.04
68189;DHT22;66299;47.514;19.218;2023-05-24T07:24:58;19.78;81.66
68189;DHT22;66299;47.514;19.218;2023-05-24T07:27:30;19.78;81.48
68189;DHT22;66299;47.514;19.218;2023-05-24T07:30:01;19.89;81.38
68189;DHT22;66299;47.514;19.218;2023-05-24T07:32:38;20.10;81.50
68189;DHT22;66299;47.514;19.218;2023-05-24T07:35:12;20.13;80.69
68189;DHT22;66299;47.514;19.218;2023-05-24T07:37:46;20.37;80.34
68189;DHT22;66299;47.514;19.218;2023-05-24T07:40:16;20.36;79.52
68189;DHT22;66299;47.514;19.218;2023-05-24T07:42:49;20.43;80.70
68189;DHT22;66299;47.514;19.218;2023-05-24T07:45:24;20.58;80.42
68189;DHT22;66299;47.514;19.218;2023-05-24T07:47:53;20.73;79.46
68189;DHT22;66299;47.514;19.218;2023-05-24T07:50:24;20.88;80.42
68189;DHT22;66299;47.514;19.218;2023-05-24T07:52:55;20.25;79.68
68189;DHT22;66299;47.514;19.218;2023-05-24T07:55:24;20.32;81.19
68189;DHT22;66299;47.514;19.218;2023-05-24T07:57:55;20.48;79.89
68189;DHT22;66299;47.514;19.218;2023-05-24T08:00:29;20.71;79.49
68189;DHT22;66299;47.514;19.218;2023-05-24T08:02:59;20.51;79.23
68189;DHT22;66299;47.514;19.218;2023-05-24T08:05:29;21.12;79.12
68189;DHT22;66299;47.514;19.218;2023-05-24T08:07:57;20.63;78.22
68189;DHT22;66299;47.514;19.218;2023-05-24T08:10:26;20.94;78.60
68189;DHT22;66299;47.514;19.218;2023-05-24T08:12:56;21.15;77.41
68189;DHT22;66299;47.514;19.218;2023-05-24T08:15:27;21.02;77.09
68189;DHT22;66299;47.514;19.218;2023-05-24T08:17:55;21.01;78.27
68189;DHT22;66299;47.514;19.218;2023-05-24T08:20:24;21.02;78.75
68189;DHT22;66299;47.514;19.218;2023-05-24T08:22:54;21.35;78.22
68189;DHT22;66299;47.514;19.218;2023-05-24T08:25:23;20.95;77.22
68189;DHT22;66299;47.514;19.218;2023-05-24T08:27:53;20.98;78.18
68189;DHT22;66299;47.514;19.218;2023-05-24T08:30:23;21.29;77.48
68189;DHT22;66299;47.514;19.218;2023-05-24T08:32:52;21.53;76.68
68189;DHT22;66299;47.514;19.218;2023-05-24T08:35:21;21.43;76.65
68189;DHT22;66299;47.514;19.218;2023-05-24T08:37:49;21.39;75.86
68189;DHT22;66299;47.514;19.218;2023-05-24T08:40:19;21.78;76.01
68189;DHT22;66299;47.514;19.218;2023-05-24T08:42:51;22.31;74.59
68189;DHT22;66299;47.514;19.218;2023-05-24T08:45:21;21.49;76.73
68189;DHT22;66299;47.514;19.218;2023-05-24T08:47:50;22.18;75.27
68189;DHT22;66299;47.514;19.218;2023-05-24T08:50:19;22.32;75.04
68189;DHT22;66299;47.514;19.218;2023-05-24T08:52:47;22.11;74.30
68189;DHT22;66299;47.514;19.218;2023-05-24T08:55:19;22.69;75.05
68189;DHT22;66299;47.514;19.218;2023-05-24T08:57:49;21.73;77.73
68189;DHT22;66299;47.514;19.218;2023-05-24T09:00:19;21.42;77.29
68189;DHT22;66299;47.514;19.218;2023-05-24T09:02:48;20.85;79.16
68189;DHT22;66299;47.514;19.218;2023-05-24T09:05:20;21.61;78.55
68189;DHT22;66299;47.514;19.218;2023-05-24T09:07:50;21.23;78.39
68189;DHT22;66299;47.514;19.218;2023-05-24T09:10:21;21.46;77.54
68189;DHT22;66299;47.514;19.218;2023-05-24T09:12:52;22.01;76.20
68189;DHT22;66299;47.514;19.218;2023-05-24T09:15:26;21.80;76.91
68189;DHT22;66299;47.514;19.218;2023-05-24T09:17:55;21.90;76.41
68189;DHT22;66299;47.514;19.218;2023-05-24T09:20:24;22.22;76.67
68189;DHT22;66299;47.514;19.218;2023-05-24T09:22:54;21.16;77.00
68189;DHT22;66299;47.514;19.218;2023-05-24T09:25:27;21.54;76.62
68189;DHT22;66299;47.514;19.218;2023-05-24T09:27:56;21.74;75.14
68189;DHT22;66299;47.514;19.218;2023-05-24T09:30:25;22.35;73.33
68189;DHT22;66299;47.514;19.218;2023-05-24T09:32:55;21.49;74.61
68189;DHT22;66299;47.514;19.218;2023-05-24T09:35:25;21.84;75.13
68189;DHT22;66299;47.514;19.218;2023-05-24T09:37:55;22.01;76.34
68189;DHT22;66299;47.514;19.218;2023-05-24T09:40:27;22.11;76.08
68189;DHT22;66299;47.514;19.218;2023-05-24T09:43:03;21.61;76.26
68189;DHT22;66299;47.514;19.218;2023-05-24T09:45:37;22.86;73.32
68189;DHT22;66299;47.514;19.218;2023-05-24T09:48:09;23.03;72.15
68189;DHT22;66299;47.514;19.218;2023-05-24T09:50:39;21.84;75.41
68189;DHT22;66299;47.514;19.218;2023-05-24T09:53:08;22.52;73.47
68189;DHT22;66299;47.514;19.218;2023-05-24T09:55:37;22.82;74.54
68189;DHT22;66299;47.514;19.218;2023-05-24T09:58:07;22.73;72.42
68189;DHT22;66299;47.514;19.218;2023-05-24T10:00:40;22.76;72.31
68189;DHT22;66299;47.514;19.218;2023-05-24T10:03:10;23.03;70.61
68189;DHT22;66299;47.514;19.218;2023-05-24T10:05:42;22.97;71.65
68189;DHT22;66299;47.514;19.218;2023-05-24T10:08:11;22.96;71.85
68189;DHT22;66299;47.514;19.218;2023-05-24T10:10:43;23.17;70.88
68189;DHT22;66299;47.514;19.218;2023-05-24T10:13:12;23.37;71.89
68189;DHT22;66299;47.514;19.218;2023-05-24T10:15:43;22.89;71.81
68189;DHT22;66299;47.514;19.218;2023-05-24T10:18:12;23.75;69.94
68189;DHT22;66299;47.514;19.218;2023-05-24T10:20:40;24.20;69.98
68189;DHT22;66299;47.514;19.218;2023-05-24T10:23:14;23.62;70.53
68189;DHT22;66299;47.514;19.218;2023-05-24T10:25:49;23.21;69.84
68189;DHT22;66299;47.514;19.218;2023-05-24T10:28:21;22.60;72.84
68189;DHT22;66299;47.514;19.218;2023-05-24T10:31:01;22.17;73.37
68189;DHT22;66299;47.514;19.218;2023-05-24T10:33:31;22.87;73.28
68189;DHT22;66299;47.514;19.218;2023-05-24T10:36:02;23.71;70.30
68189;DHT22;66299;47.514;19.218;2023-05-24T10:38:36;24.68;68.46
68189;DHT22;66299;47.514;19.218;2023-05-24T10:41:08;24.09;68.96
68189;DHT22;66299;47.514;19.218;2023-05-24T10:43:37;24.05;69.11
68189;DHT22;66299;47.514;19.218;2023-05-24T10:46:08;23.14;69.95
68189;DHT22;66299;47.514;19.218;2023-05-24T10:48:39;23.54;70.36
68189;DHT22;66299;47.514;19.218;2023-05-24T10:51:37;23.61;68.83
68189;DHT22;66299;47.514;19.218;2023-05-24T10:54:10;23.57;69.63
68189;DHT22;66299;47.514;19.218;2023-05-24T10:56:42;23.99;66.12
68189;DHT22;66299;47.514;19.218;2023-05-24T10:59:32;23.79;66.99
68189;DHT22;66299;47.514;19.218;2023-05-24T11:02:05;24.24;68.55
68189;DHT22;66299;47.514;19.218;2023-05-24T11:04:37;24.72;65.34
68189;DHT22;66299;47.514;19.218;2023-05-24T11:07:07;23.34;68.76
68189;DHT22;66299;47.514;19.218;2023-05-24T11:09:37;22.94;71.08
68189;DHT22;66299;47.514;19.218;2023-05-24T11:12:15;22.53;71.06
68189;DHT22;66299;47.514;19.218;2023-05-24T11:14:51;23.52;68.71
68189;DHT22;66299;47.514;19.218;2023-05-24T11:17:22;23.54;66.17
68189;DHT22;66299;47.514;19.218;2023-05-24T11:19:52;24.81;65.69
68189;DHT22;66299;47.514;19.218;2023-05-24T11:22:24;24.63;64.84
68189;DHT22;66299;47.514;19.218;2023-05-24T11:24:55;24.43;64.63
68189;DHT22;66299;47.514;19.218;2023-05-24T11:27:28;24.09;66.47
68189;DHT22;66299;47.514;19.218;2023-05-24T11:29:58;24.23;66.65
68189;DHT22;66299;47.514;19.218;2023-05-24T11:32:29;23.98;65.66
68189;DHT22;66299;47.514;19.218;2023-05-24T11:34:59;23.99;66.35
68189;DHT22;66299;47.514;19.218;2023-05-24T11:37:28;24.06;64.52
68189;DHT22;66299;47.514;19.218;2023-05-24T11:40:13;24.17;65.94
68189;DHT22;66299;47.514;19.218;2023-05-24T11:42:45;24.67;65.08
68189;DHT22;66299;47.514;19.218;2023-05-24T11:45:16;25.22;62.64
68189;DHT22;66299;47.514;19.218;2023-05-24T11:47:47;24.74;64.76
68189;DHT22;66299;47.514;19.218;2023-05-24T11:50:23;23.92;67.91
68189;DHT22;66299;47.514;19.218;2023-05-24T11:53:01;23.42;68.28
68189;DHT22;66299;47.514;19.218;2023-05-24T11:55:32;24.37;65.85
68189;DHT22;66299;47.514;19.218;2023-05-24T11:58:06;23.73;67.89
68189;DHT22;66299;47.514;19.218;2023-05-24T12:00:39;23.83;66.52
68189;DHT22;66299;47.514;19.218;2023-05-24T12:03:08;24.68;63.40
68189;DHT22;66299;47.514;19.218;2023-05-24T12:05:37;25.60;61.61
68189;DHT22;66299;47.514;19.218;2023-05-24T12:08:11;25.49;61.33
68189;DHT22;66299;47.514;19.218;2023-05-24T12:10:43;24.67;62.90
68189;DHT22;66299;47.514;19.218;2023-05-24T12:13:21;24.65;64.14
68189;DHT22;66299;47.514;19.218;2023-05-24T12:15:52;24.65;64.08
68189;DHT22;66299;47.514;19.218;2023-05-24T12:18:24;24.75;64.78
68189;DHT22;66299;47.514;19.218;2023-05-24T12:20:54;25.53;64.31
68189;DHT22;66299;47.514;19.218;2023-05-24T12:23:25;24.67;66.42
68189;DHT22;66299;47.514;19.218;2023-05-24T12:25:58;23.86;66.77
68189;DHT22;66299;47.514;19.218;2023-05-24T12:28:33;24.30;66.56
68189;DHT22;66299;47.514;19.218;2023-05-24T12:31:05;24.91;66.05
68189;DHT22;66299;47.514;19.218;2023-05-24T12:33:34;25.66;62.97
68189;DHT22;66299;47.514;19.218;2023-05-24T12:36:04;25.29;63.22
68189;DHT22;66299;47.514;19.218;2023-05-24T12:38:33;24.63;64.82
68189;DHT22;66299;47.514;19.218;2023-05-24T12:41:02;24.63;63.89
68189;DHT22;66299;47.514;19.218;2023-05-24T12:43:40;25.12;64.89
68189;DHT22;66299;47.514;19.218;2023-05-24T12:46:12;25.40;64.05
68189;DHT22;66299;47.514;19.218;2023-05-24T12:48:40;25.47;63.52
68189;DHT22;66299;47.514;19.218;2023-05-24T12:51:09;25.19;64.28
68189;DHT22;66299;47.514;19.218;2023-05-24T12:53:38;24.99;64.32
68189;DHT22;66299;47.514;19.218;2023-05-24T12:56:08;24.30;66.86
68189;DHT22;66299;47.514;19.218;2023-05-24T12:58:36;24.12;67.21
68189;DHT22;66299;47.514;19.218;2023-05-24T13:01:08;23.65;68.05
68189;DHT22;66299;47.514;19.218;2023-05-24T13:03:36;24.19;66.66
68189;DHT22;66299;47.514;19.218;2023-05-24T13:06:06;24.77;64.91
68189;DHT22;66299;47.514;19.218;2023-05-24T13:08:35;24.81;63.69
68189;DHT22;66299;47.514;19.218;2023-05-24T13:11:07;24.71;65.10
68189;DHT22;66299;47.514;19.218;2023-05-24T13:13:38;23.90;66.34
68189;DHT22;66299;47.514;19.218;2023-05-24T13:16:07;23.88;67.69
68189;DHT22;66299;47.514;19.218;2023-05-24T13:18:36;24.37;66.65
68189;DHT22;66299;47.514;19.218;2023-05-24T13:21:07;24.40;66.09
68189;DHT22;66299;47.514;19.218;2023-05-24T13:23:38;24.29;65.43
68189;DHT22;66299;47.514;19.218;2023-05-24T13:26:08;24.81;65.79
68189;DHT22;66299;47.514;19.218;2023-05-24T13:28:39;24.78;65.50
68189;DHT22;66299;47.514;19.218;2023-05-24T13:31:30;24.53;65.00
68189;DHT22;66299;47.514;19.218;2023-05-24T13:34:00;24.14;66.26
68189;DHT22;66299;47.514;19.218;2023-05-24T13:36:32;24.63;65.05
68189;DHT22;66299;47.514;19.218;2023-05-24T13:39:00;24.67;63.39
68189;DHT22;66299;47.514;19.218;2023-05-24T13:41:34;25.15;64.12
68189;DHT22;66299;47.514;19.218;2023-05-24T13:44:03;24.41;63.63
68189;DHT22;66299;47.514;19.218;2023-05-24T13:46:33;24.29;65.61
68189;DHT22;66299;47.514;19.218;2023-05-24T13:49:03;24.27;65.00
68189;DHT22;66299;47.514;19.218;2023-05-24T13:51:31;24.61;63.52
68189;DHT22;66299;47.514;19.218;2023-05-24T13:54:00;24.03;65.04
68189;DHT22;66299;47.514;19.218;2023-05-24T13:56:29;24.67;63.70
68189;DHT22;66299;47.514;19.218;2023-05-24T13:58:59;24.79;63.97
68189;DHT22;66299;47.514;19.218;2023-05-24T14:01:28;24.61;63.84
68189;DHT22;66299;47.514;19.218;2023-05-24T14:03:58;24.30;63.63
68189;DHT22;66299;47.514;19.218;2023-05-24T14:06:27;24.47;63.07
68189;DHT22;66299;47.514;19.218;2023-05-24T14:08:56;25.09;63.49
68189;DHT22;66299;47.514;19.218;2023-05-24T14:11:24;25.37;61.61
68189;DHT22;66299;47.514;19.218;2023-05-24T14:13:53;25.13;62.07
68189;DHT22;66299;47.514;19.218;2023-05-24T14:16:42;24.60;63.03
68189;DHT22;66299;47.514;19.218;2023-05-24T14:19:12;24.41;63.79
68189;DHT22;66299;47.514;19.218;2023-05-24T14:21:43;24.48;63.39
68189;DHT22;66299;47.514;19.218;2023-05-24T14:24:11;24.37;64.18
68189;DHT22;66299;47.514;19.218;2023-05-24T14:26:40;24.31;63.75
68189;DHT22;66299;47.514;19.218;2023-05-24T14:29:09;24.36;64.27
68189;DHT22;66299;47.514;19.218;2023-05-24T14:31:38;24.61;63.77
68189;DHT22;66299;47.514;19.218;2023-05-24T14:34:08;24.78;63.31
68189;DHT22;66299;47.514;19.218;2023-05-24T14:36:39;24.58;65.01
68189;DHT22;66299;47.514;19.218;2023-05-24T14:39:08;24.89;63.52
68189;DHT22;66299;47.514;19.218;2023-05-24T14:41:38;24.60;64.39
68189;DHT22;66299;47.514;19.218;2023-05-24T14:44:06;24.36;63.95
68189;DHT22;66299;47.514;19.218;2023-05-24T14:46:34;24.50;63.20
68189;DHT22;66299;47.514;19.218;2023-05-24T14:49:03;23.96;64.66
68189;DHT22;66299;47.514;19.218;2023-05-24T14:51:33;24.24;65.23
68189;DHT22;66299;47.514;19.218;2023-05-24T14:54:04;23.89;64.67
68189;DHT22;66299;47.514;19.218;2023-05-24T14:56:34;24.30;65.04
68189;DHT22;66299;47.514;19.218;2023-05-24T14:59:03;24.10;65.49
68189;DHT22;66299;47.514;19.218;2023-05-24T15:01:31;24.23;64.61
68189;DHT22;66299;47.514;19.218;2023-05-24T15:04:00;23.58;65.46
68189;DHT22;66299;47.514;19.218;2023-05-24T15:06:28;23.75;65.86
68189;DHT22;66299;47.514;19.218;2023-05-24T15:09:01;23.28;67.34
68189;DHT22;66299;47.514;19.218;2023-05-24T15:11:32;23.24;67.13
68189;DHT22;66299;47.514;19.218;2023-05-24T15:14:02;23.00;66.77
68189;DHT22;66299;47.514;19.218;2023-05-24T15:16:31;23.25;66.90
68189;DHT22;66299;47.514;19.218;2023-05-24T15:19:00;23.55;65.24
68189;DHT22;66299;47.514;19.218;2023-05-24T15:21:28;23.58;65.07
68189;DHT22;66299;47.514;19.218;2023-05-24T15:23:57;23.68;65.47
68189;DHT22;66299;47.514;19.218;2023-05-24T15:26:25;23.61;65.18
68189;DHT22;66299;47.514;19.218;2023-05-24T15:28:56;23.68;65.25
68189;DHT22;66299;47.514;19.218;2023-05-24T15:31:26;23.28;65.39
68189;DHT22;66299;47.514;19.218;2023-05-24T15:33:55;23.40;64.82
68189;DHT22;66299;47.514;19.218;2023-05-24T15:36:24;23.63;64.55